Etusivu
METAR-TAF:

METAR-TAF

Lentoasemat :

Calhoun, Georgia, Yhdysvallat

Leveyspiiri: 34-27-20N, Pituuspiiri: 084-56-21W, korkeus merenpinnasta: 198 m

Tämänhetkinen sää

Tämä raportti tehtiin 18 minuuttia sitten, kello 23.55 UTC
Tuuli 5 kn lännestä/lounaasta
Lämpötila 28°C
Kosteus 70%
Ilmanpaine 1015 hPa
Näkyvyys: 16.1 km
Hajanaisia pilviä 3800 ft:n korkeudessa
Hajanaisia pilviä 4300 ft:n korkeudessa

METAR: KCZL 052355Z AUTO 25005KT 10SM SCT038 SCT043 28/22 A2996 RMK AO2

Aika: 20:13 (00:13 UTC)


TAF: puuttuu

Säähavainnot ja -ennusteet yli 4000 lentoasemalta (METAR- ja TAF-raportit).

Käytössä olevat sääasemat on merkitty karttaan keltaisilla ja punaisilla pisteillä.

Aseta hiiri pisteen päälle nähdäksesi sääaseman nimen.

Klikkaa sitten nähdäksesi säähavainnot ja -ennusteet.

Kartan vaihtaminen: klikkaa mustalla rastilla varustettuja vihreitä pisteitä, niin voit zoomata sisään; viivalla varustettua vihreää pistettä, niin voit zoomata ulos tai vihreitä nuolia, niin pääset viereisille kartoille.


METAR-TAF: